sensor_id;sensor_type;location;lat;lon;timestamp;pressure;altitude;pressure_sealevel;temperature;humidity
62248;BME280;48237;50.140;8.486;2023-02-10T00:02:05;101488.28;;;-1.11;65.69
62248;BME280;48237;50.140;8.486;2023-02-10T00:04:33;101492.36;;;-0.98;67.20
62248;BME280;48237;50.140;8.486;2023-02-10T00:07:00;101493.23;;;-0.55;66.08
62248;BME280;48237;50.140;8.486;2023-02-10T00:09:27;101491.28;;;-1.28;70.81
62248;BME280;48237;50.140;8.486;2023-02-10T00:11:55;101493.95;;;-2.31;73.40
62248;BME280;48237;50.140;8.486;2023-02-10T00:14:22;101501.18;;;-3.00;76.94
62248;BME280;48237;50.140;8.486;2023-02-10T00:16:50;101498.98;;;-1.19;72.83
62248;BME280;48237;50.140;8.486;2023-02-10T00:19:25;101500.64;;;-1.29;71.57
62248;BME280;48237;50.140;8.486;2023-02-10T00:21:53;101503.06;;;-0.90;69.78
62248;BME280;48237;50.140;8.486;2023-02-10T00:24:21;101505.51;;;-0.63;66.78
62248;BME280;48237;50.140;8.486;2023-02-10T00:26:49;101512.79;;;-0.67;66.14
62248;BME280;48237;50.140;8.486;2023-02-10T00:29:17;101514.44;;;-1.42;68.73
62248;BME280;48237;50.140;8.486;2023-02-10T00:31:44;101521.80;;;-1.26;70.04
62248;BME280;48237;50.140;8.486;2023-02-10T00:34:13;101518.46;;;-0.98;69.19
62248;BME280;48237;50.140;8.486;2023-02-10T00:36:41;101520.70;;;-1.96;71.47
62248;BME280;48237;50.140;8.486;2023-02-10T00:39:13;101522.90;;;-1.66;71.78
62248;BME280;48237;50.140;8.486;2023-02-10T00:41:40;101521.41;;;-1.13;69.46
62248;BME280;48237;50.140;8.486;2023-02-10T00:44:08;101525.99;;;-1.25;68.44
62248;BME280;48237;50.140;8.486;2023-02-10T00:46:36;101527.98;;;-0.60;67.16
62248;BME280;48237;50.140;8.486;2023-02-10T00:49:03;101530.24;;;-0.70;67.54
62248;BME280;48237;50.140;8.486;2023-02-10T00:51:30;101532.34;;;-0.49;66.96
62248;BME280;48237;50.140;8.486;2023-02-10T00:53:57;101535.81;;;-0.81;67.70
62248;BME280;48237;50.140;8.486;2023-02-10T00:56:24;101533.30;;;-0.39;65.74
62248;BME280;48237;50.140;8.486;2023-02-10T00:58:52;101536.69;;;-0.52;65.42
62248;BME280;48237;50.140;8.486;2023-02-10T01:01:19;101533.68;;;-0.54;68.05
62248;BME280;48237;50.140;8.486;2023-02-10T01:03:46;101542.35;;;-1.51;70.09
62248;BME280;48237;50.140;8.486;2023-02-10T01:06:14;101543.96;;;-1.09;71.01
62248;BME280;48237;50.140;8.486;2023-02-10T01:08:41;101545.36;;;-1.56;72.49
62248;BME280;48237;50.140;8.486;2023-02-10T01:11:10;101551.55;;;-1.19;70.57
62248;BME280;48237;50.140;8.486;2023-02-10T01:13:39;101552.40;;;-0.77;69.94
62248;BME280;48237;50.140;8.486;2023-02-10T01:16:08;101555.82;;;-0.19;66.85
62248;BME280;48237;50.140;8.486;2023-02-10T01:18:36;101550.70;;;-1.60;71.12
62248;BME280;48237;50.140;8.486;2023-02-10T01:21:06;101545.32;;;-1.10;71.03
62248;BME280;48237;50.140;8.486;2023-02-10T01:23:34;101543.96;;;-1.08;69.35
62248;BME280;48237;50.140;8.486;2023-02-10T01:26:08;101542.41;;;-1.14;69.99
62248;BME280;48237;50.140;8.486;2023-02-10T01:28:36;101548.16;;;-0.07;65.89
62248;BME280;48237;50.140;8.486;2023-02-10T01:31:05;101551.40;;;-0.21;64.65
62248;BME280;48237;50.140;8.486;2023-02-10T01:33:33;101557.12;;;-0.65;68.04
62248;BME280;48237;50.140;8.486;2023-02-10T01:36:03;101562.27;;;-0.95;68.77
62248;BME280;48237;50.140;8.486;2023-02-10T01:38:30;101563.05;;;-0.18;66.23
62248;BME280;48237;50.140;8.486;2023-02-10T01:40:57;101565.22;;;-0.41;66.48
62248;BME280;48237;50.140;8.486;2023-02-10T01:43:25;101564.28;;;-1.09;68.79
62248;BME280;48237;50.140;8.486;2023-02-10T01:45:52;101563.83;;;-1.40;70.75
62248;BME280;48237;50.140;8.486;2023-02-10T01:48:21;101567.02;;;-0.36;67.07
62248;BME280;48237;50.140;8.486;2023-02-10T01:50:53;101569.12;;;-0.85;69.39
62248;BME280;48237;50.140;8.486;2023-02-10T01:53:21;101569.59;;;0.05;65.44
62248;BME280;48237;50.140;8.486;2023-02-10T01:55:52;101570.47;;;-1.23;70.14
62248;BME280;48237;50.140;8.486;2023-02-10T01:58:24;101566.48;;;0.24;65.89
62248;BME280;48237;50.140;8.486;2023-02-10T02:00:53;101571.50;;;0.17;66.07
62248;BME280;48237;50.140;8.486;2023-02-10T02:03:20;101571.20;;;0.32;65.25
62248;BME280;48237;50.140;8.486;2023-02-10T02:05:47;101574.67;;;0.29;66.64
62248;BME280;48237;50.140;8.486;2023-02-10T02:08:19;101574.65;;;-0.00;67.90
62248;BME280;48237;50.140;8.486;2023-02-10T02:10:59;101576.68;;;-0.26;68.44
62248;BME280;48237;50.140;8.486;2023-02-10T02:13:59;101575.30;;;-0.95;70.25
62248;BME280;48237;50.140;8.486;2023-02-10T02:16:38;101576.11;;;0.09;68.71
62248;BME280;48237;50.140;8.486;2023-02-10T02:19:25;101574.35;;;-0.18;67.70
62248;BME280;48237;50.140;8.486;2023-02-10T02:22:44;101574.69;;;-1.12;72.12
62248;BME280;48237;50.140;8.486;2023-02-10T02:25:26;101578.61;;;0.27;69.85
62248;BME280;48237;50.140;8.486;2023-02-10T02:28:12;101576.01;;;0.42;65.75
62248;BME280;48237;50.140;8.486;2023-02-10T02:31:14;101573.97;;;0.66;65.18
62248;BME280;48237;50.140;8.486;2023-02-10T02:33:49;101572.95;;;0.12;65.52
62248;BME280;48237;50.140;8.486;2023-02-10T02:36:23;101578.28;;;0.13;66.34
62248;BME280;48237;50.140;8.486;2023-02-10T02:38:59;101587.13;;;-2.13;74.26
62248;BME280;48237;50.140;8.486;2023-02-10T02:41:29;101595.73;;;-3.29;83.90
62248;BME280;48237;50.140;8.486;2023-02-10T02:44:03;101594.98;;;-3.02;86.09
62248;BME280;48237;50.140;8.486;2023-02-10T02:46:39;101595.37;;;-2.13;79.45
62248;BME280;48237;50.140;8.486;2023-02-10T02:49:19;101599.74;;;-3.38;87.93
62248;BME280;48237;50.140;8.486;2023-02-10T02:51:53;101597.44;;;-3.50;87.27
62248;BME280;48237;50.140;8.486;2023-02-10T02:54:26;101601.38;;;-3.83;93.74
62248;BME280;48237;50.140;8.486;2023-02-10T02:57:02;101596.19;;;-2.39;86.48
62248;BME280;48237;50.140;8.486;2023-02-10T02:59:39;101588.38;;;-1.09;78.02
62248;BME280;48237;50.140;8.486;2023-02-10T03:02:11;101590.09;;;0.10;72.66
62248;BME280;48237;50.140;8.486;2023-02-10T03:04:39;101582.72;;;0.50;70.50
62248;BME280;48237;50.140;8.486;2023-02-10T03:07:08;101588.47;;;-0.18;73.19
62248;BME280;48237;50.140;8.486;2023-02-10T03:09:35;101589.21;;;-0.57;72.84
62248;BME280;48237;50.140;8.486;2023-02-10T03:12:03;101591.91;;;-0.23;71.83
62248;BME280;48237;50.140;8.486;2023-02-10T03:14:31;101592.32;;;-0.09;71.48
62248;BME280;48237;50.140;8.486;2023-02-10T03:16:58;101594.51;;;-2.62;79.06
62248;BME280;48237;50.140;8.486;2023-02-10T03:19:26;101592.42;;;-0.26;71.59
62248;BME280;48237;50.140;8.486;2023-02-10T03:21:53;101593.74;;;-3.08;84.09
62248;BME280;48237;50.140;8.486;2023-02-10T03:24:20;101591.68;;;-2.29;78.66
62248;BME280;48237;50.140;8.486;2023-02-10T03:26:47;101587.88;;;-0.59;75.22
62248;BME280;48237;50.140;8.486;2023-02-10T03:29:16;101595.15;;;-1.82;79.68
62248;BME280;48237;50.140;8.486;2023-02-10T03:31:43;101587.00;;;-1.67;76.31
62248;BME280;48237;50.140;8.486;2023-02-10T03:34:10;101597.78;;;-1.76;80.19
62248;BME280;48237;50.140;8.486;2023-02-10T03:36:38;101597.38;;;-0.41;74.03
62248;BME280;48237;50.140;8.486;2023-02-10T03:39:06;101588.58;;;0.59;68.29
62248;BME280;48237;50.140;8.486;2023-02-10T03:41:33;101596.70;;;-2.31;79.25
62248;BME280;48237;50.140;8.486;2023-02-10T03:44:00;101595.55;;;-1.41;78.54
62248;BME280;48237;50.140;8.486;2023-02-10T03:46:27;101599.71;;;-0.48;76.65
62248;BME280;48237;50.140;8.486;2023-02-10T03:48:54;101601.41;;;-2.57;81.65
62248;BME280;48237;50.140;8.486;2023-02-10T03:51:22;101601.05;;;-0.62;74.80
62248;BME280;48237;50.140;8.486;2023-02-10T03:53:49;101607.94;;;0.13;72.13
62248;BME280;48237;50.140;8.486;2023-02-10T03:56:16;101598.79;;;0.81;68.93
62248;BME280;48237;50.140;8.486;2023-02-10T03:58:44;101597.47;;;0.92;69.04
62248;BME280;48237;50.140;8.486;2023-02-10T04:01:14;101605.62;;;0.23;70.01
62248;BME280;48237;50.140;8.486;2023-02-10T04:03:41;101598.82;;;0.74;67.33
62248;BME280;48237;50.140;8.486;2023-02-10T04:06:10;101603.58;;;1.02;66.85
62248;BME280;48237;50.140;8.486;2023-02-10T04:08:37;101602.55;;;1.28;66.63
62248;BME280;48237;50.140;8.486;2023-02-10T04:11:05;101601.29;;;0.77;64.99
62248;BME280;48237;50.140;8.486;2023-02-10T04:13:32;101606.68;;;1.57;64.21
62248;BME280;48237;50.140;8.486;2023-02-10T04:16:01;101610.18;;;0.61;67.93
62248;BME280;48237;50.140;8.486;2023-02-10T04:18:28;101613.65;;;0.87;65.53
62248;BME280;48237;50.140;8.486;2023-02-10T04:20:56;101611.75;;;1.16;65.78
62248;BME280;48237;50.140;8.486;2023-02-10T04:23:24;101612.71;;;1.45;65.32
62248;BME280;48237;50.140;8.486;2023-02-10T04:25:50;101619.92;;;1.39;65.61
62248;BME280;48237;50.140;8.486;2023-02-10T04:28:18;101622.48;;;0.64;66.87
62248;BME280;48237;50.140;8.486;2023-02-10T04:30:45;101618.45;;;1.55;65.31
62248;BME280;48237;50.140;8.486;2023-02-10T04:33:13;101620.83;;;1.46;65.25
62248;BME280;48237;50.140;8.486;2023-02-10T04:35:40;101621.78;;;1.43;65.87
62248;BME280;48237;50.140;8.486;2023-02-10T04:38:07;101625.85;;;0.78;67.46
62248;BME280;48237;50.140;8.486;2023-02-10T04:40:34;101632.68;;;0.40;69.29
62248;BME280;48237;50.140;8.486;2023-02-10T04:43:01;101629.01;;;0.68;69.67
62248;BME280;48237;50.140;8.486;2023-02-10T04:45:28;101635.24;;;-2.01;81.15
62248;BME280;48237;50.140;8.486;2023-02-10T04:47:56;101637.55;;;-1.42;77.24
62248;BME280;48237;50.140;8.486;2023-02-10T04:50:24;101637.99;;;-0.96;77.70
62248;BME280;48237;50.140;8.486;2023-02-10T04:52:51;101645.58;;;0.22;72.92
62248;BME280;48237;50.140;8.486;2023-02-10T04:55:18;101647.72;;;-0.39;72.66
62248;BME280;48237;50.140;8.486;2023-02-10T04:57:45;101650.25;;;-0.34;75.88
62248;BME280;48237;50.140;8.486;2023-02-10T05:00:14;101646.87;;;0.38;73.40
62248;BME280;48237;50.140;8.486;2023-02-10T05:02:42;101651.53;;;-0.62;76.17
62248;BME280;48237;50.140;8.486;2023-02-10T05:05:10;101651.62;;;-0.70;75.62
62248;BME280;48237;50.140;8.486;2023-02-10T05:07:39;101651.31;;;-0.62;72.99
62248;BME280;48237;50.140;8.486;2023-02-10T05:10:06;101644.53;;;1.10;68.41
62248;BME280;48237;50.140;8.486;2023-02-10T05:12:33;101653.37;;;-0.28;73.59
62248;BME280;48237;50.140;8.486;2023-02-10T05:15:00;101659.36;;;-2.03;82.33
62248;BME280;48237;50.140;8.486;2023-02-10T05:17:27;101656.76;;;0.03;72.68
62248;BME280;48237;50.140;8.486;2023-02-10T05:19:55;101653.18;;;0.42;70.84
62248;BME280;48237;50.140;8.486;2023-02-10T05:22:23;101653.57;;;0.93;70.04
62248;BME280;48237;50.140;8.486;2023-02-10T05:24:50;101658.93;;;-1.01;78.91
62248;BME280;48237;50.140;8.486;2023-02-10T05:27:17;101666.98;;;-2.32;83.28
62248;BME280;48237;50.140;8.486;2023-02-10T05:29:44;101665.74;;;-2.93;84.98
62248;BME280;48237;50.140;8.486;2023-02-10T05:32:11;101658.39;;;-1.79;83.07
62248;BME280;48237;50.140;8.486;2023-02-10T05:34:39;101654.66;;;-1.46;83.43
62248;BME280;48237;50.140;8.486;2023-02-10T05:37:07;101663.07;;;-3.40;89.35
62248;BME280;48237;50.140;8.486;2023-02-10T05:39:34;101654.88;;;-0.52;79.47
62248;BME280;48237;50.140;8.486;2023-02-10T05:42:03;101660.32;;;-2.00;85.72
62248;BME280;48237;50.140;8.486;2023-02-10T05:44:31;101663.35;;;-1.57;81.78
62248;BME280;48237;50.140;8.486;2023-02-10T05:46:58;101663.26;;;-2.54;89.41
62248;BME280;48237;50.140;8.486;2023-02-10T05:49:26;101664.07;;;-3.24;90.41
62248;BME280;48237;50.140;8.486;2023-02-10T05:51:53;101665.42;;;-3.64;95.71
62248;BME280;48237;50.140;8.486;2023-02-10T05:54:20;101666.29;;;-2.15;91.22
62248;BME280;48237;50.140;8.486;2023-02-10T05:56:49;101665.84;;;-1.23;83.08
62248;BME280;48237;50.140;8.486;2023-02-10T05:59:16;101664.85;;;-1.59;84.96
62248;BME280;48237;50.140;8.486;2023-02-10T06:01:43;101668.14;;;-0.08;76.94
62248;BME280;48237;50.140;8.486;2023-02-10T06:04:11;101671.09;;;-2.27;82.35
62248;BME280;48237;50.140;8.486;2023-02-10T06:06:38;101676.83;;;-3.78;92.43
62248;BME280;48237;50.140;8.486;2023-02-10T06:09:05;101671.98;;;-3.12;91.71
62248;BME280;48237;50.140;8.486;2023-02-10T06:11:32;101670.02;;;-3.86;92.86
62248;BME280;48237;50.140;8.486;2023-02-10T06:14:00;101664.13;;;-3.29;91.43
62248;BME280;48237;50.140;8.486;2023-02-10T06:16:29;101672.00;;;-2.35;91.47
62248;BME280;48237;50.140;8.486;2023-02-10T06:18:56;101666.75;;;-1.29;81.59
62248;BME280;48237;50.140;8.486;2023-02-10T06:21:24;101662.71;;;0.41;73.82
62248;BME280;48237;50.140;8.486;2023-02-10T06:23:51;101667.26;;;-0.39;76.75
62248;BME280;48237;50.140;8.486;2023-02-10T06:26:18;101666.93;;;-1.21;80.53
62248;BME280;48237;50.140;8.486;2023-02-10T06:28:46;101671.91;;;0.83;73.33
62248;BME280;48237;50.140;8.486;2023-02-10T06:31:14;101673.23;;;0.04;72.85
62248;BME280;48237;50.140;8.486;2023-02-10T06:33:41;101673.48;;;0.18;74.25
62248;BME280;48237;50.140;8.486;2023-02-10T06:36:09;101677.12;;;0.18;73.54
62248;BME280;48237;50.140;8.486;2023-02-10T06:38:37;101674.68;;;1.22;70.08
62248;BME280;48237;50.140;8.486;2023-02-10T06:41:04;101683.12;;;0.33;71.39
62248;BME280;48237;50.140;8.486;2023-02-10T06:43:32;101688.96;;;0.75;71.56
62248;BME280;48237;50.140;8.486;2023-02-10T06:46:00;101688.20;;;0.72;71.55
62248;BME280;48237;50.140;8.486;2023-02-10T06:48:26;101692.54;;;-0.08;71.12
62248;BME280;48237;50.140;8.486;2023-02-10T06:50:54;101693.67;;;0.09;73.21
62248;BME280;48237;50.140;8.486;2023-02-10T06:53:22;101695.22;;;0.74;69.37
62248;BME280;48237;50.140;8.486;2023-02-10T06:55:50;101692.24;;;0.75;68.47
62248;BME280;48237;50.140;8.486;2023-02-10T06:58:17;101699.06;;;0.63;68.66
62248;BME280;48237;50.140;8.486;2023-02-10T07:00:44;101704.21;;;0.50;68.48
62248;BME280;48237;50.140;8.486;2023-02-10T07:03:13;101709.85;;;-1.48;75.48
62248;BME280;48237;50.140;8.486;2023-02-10T07:05:41;101708.01;;;0.73;70.19
62248;BME280;48237;50.140;8.486;2023-02-10T07:08:08;101711.49;;;1.11;69.09
62248;BME280;48237;50.140;8.486;2023-02-10T07:10:44;101714.70;;;0.98;67.29
62248;BME280;48237;50.140;8.486;2023-02-10T07:13:11;101718.28;;;1.12;67.56
62248;BME280;48237;50.140;8.486;2023-02-10T07:15:39;101724.04;;;1.08;67.57
62248;BME280;48237;50.140;8.486;2023-02-10T07:18:06;101725.30;;;1.48;67.05
62248;BME280;48237;50.140;8.486;2023-02-10T07:20:33;101721.50;;;1.77;66.66
62248;BME280;48237;50.140;8.486;2023-02-10T07:23:00;101723.91;;;1.49;67.03
62248;BME280;48237;50.140;8.486;2023-02-10T07:25:27;101718.59;;;1.14;66.75
62248;BME280;48237;50.140;8.486;2023-02-10T07:27:55;101722.66;;;1.57;68.10
62248;BME280;48237;50.140;8.486;2023-02-10T07:30:22;101718.53;;;1.71;68.05
62248;BME280;48237;50.140;8.486;2023-02-10T07:32:49;101717.29;;;2.10;66.47
62248;BME280;48237;50.140;8.486;2023-02-10T07:35:16;101722.31;;;1.75;65.94
62248;BME280;48237;50.140;8.486;2023-02-10T07:37:44;101724.74;;;1.91;66.86
62248;BME280;48237;50.140;8.486;2023-02-10T07:40:10;101732.69;;;1.61;68.40
62248;BME280;48237;50.140;8.486;2023-02-10T07:42:38;101734.19;;;1.41;69.94
62248;BME280;48237;50.140;8.486;2023-02-10T07:45:06;101736.12;;;1.93;68.51
62248;BME280;48237;50.140;8.486;2023-02-10T07:47:33;101739.00;;;1.25;68.17
62248;BME280;48237;50.140;8.486;2023-02-10T07:50:01;101739.10;;;2.33;65.21
62248;BME280;48237;50.140;8.486;2023-02-10T07:52:29;101744.01;;;1.98;66.95
62248;BME280;48237;50.140;8.486;2023-02-10T07:54:56;101746.70;;;2.61;65.73
62248;BME280;48237;50.140;8.486;2023-02-10T07:57:23;101751.25;;;2.29;67.73
62248;BME280;48237;50.140;8.486;2023-02-10T07:59:51;101754.09;;;2.81;66.34
62248;BME280;48237;50.140;8.486;2023-02-10T08:02:18;101755.45;;;2.48;65.75
62248;BME280;48237;50.140;8.486;2023-02-10T08:04:46;101754.41;;;2.60;65.25
62248;BME280;48237;50.140;8.486;2023-02-10T08:07:13;101750.57;;;2.63;66.58
62248;BME280;48237;50.140;8.486;2023-02-10T08:09:40;101745.82;;;2.61;64.07
62248;BME280;48237;50.140;8.486;2023-02-10T08:12:07;101740.58;;;2.33;66.42
62248;BME280;48237;50.140;8.486;2023-02-10T08:14:34;101737.31;;;2.75;66.19
62248;BME280;48237;50.140;8.486;2023-02-10T08:17:02;101738.16;;;2.97;64.01
62248;BME280;48237;50.140;8.486;2023-02-10T08:19:29;101743.03;;;3.27;63.00
62248;BME280;48237;50.140;8.486;2023-02-10T08:21:57;101743.20;;;3.43;64.06
62248;BME280;48237;50.140;8.486;2023-02-10T08:24:24;101738.87;;;2.98;65.38
62248;BME280;48237;50.140;8.486;2023-02-10T08:26:51;101743.66;;;3.04;65.74
62248;BME280;48237;50.140;8.486;2023-02-10T08:29:18;101748.34;;;2.92;65.59
62248;BME280;48237;50.140;8.486;2023-02-10T08:31:49;101751.50;;;3.37;65.39
62248;BME280;48237;50.140;8.486;2023-02-10T08:34:18;101749.22;;;2.94;67.43
62248;BME280;48237;50.140;8.486;2023-02-10T08:36:46;101747.09;;;3.09;67.01
62248;BME280;48237;50.140;8.486;2023-02-10T08:39:14;101750.31;;;2.98;66.25
62248;BME280;48237;50.140;8.486;2023-02-10T08:41:42;101756.25;;;3.62;65.53
62248;BME280;48237;50.140;8.486;2023-02-10T08:44:12;101754.94;;;3.04;67.39
62248;BME280;48237;50.140;8.486;2023-02-10T08:46:39;101759.92;;;3.42;65.72
62248;BME280;48237;50.140;8.486;2023-02-10T08:49:06;101759.90;;;3.17;66.34
62248;BME280;48237;50.140;8.486;2023-02-10T08:51:33;101761.84;;;2.86;68.46
62248;BME280;48237;50.140;8.486;2023-02-10T08:54:01;101762.28;;;3.59;66.46
62248;BME280;48237;50.140;8.486;2023-02-10T08:56:29;101763.10;;;3.30;68.13
62248;BME280;48237;50.140;8.486;2023-02-10T08:58:56;101762.55;;;3.47;65.91
62248;BME280;48237;50.140;8.486;2023-02-10T09:01:25;101761.83;;;4.31;64.27
62248;BME280;48237;50.140;8.486;2023-02-10T09:03:52;101760.74;;;4.21;63.21
62248;BME280;48237;50.140;8.486;2023-02-10T09:06:22;101766.93;;;3.76;65.14
62248;BME280;48237;50.140;8.486;2023-02-10T09:08:51;101771.39;;;2.74;68.05
62248;BME280;48237;50.140;8.486;2023-02-10T09:11:18;101772.71;;;3.50;64.44
62248;BME280;48237;50.140;8.486;2023-02-10T09:13:46;101774.25;;;3.03;67.66
62248;BME280;48237;50.140;8.486;2023-02-10T09:16:13;101774.97;;;3.81;63.29
62248;BME280;48237;50.140;8.486;2023-02-10T09:18:40;101776.09;;;3.08;65.20
62248;BME280;48237;50.140;8.486;2023-02-10T09:21:09;101774.92;;;3.34;65.95
62248;BME280;48237;50.140;8.486;2023-02-10T09:23:37;101768.97;;;4.01;62.96
62248;BME280;48237;50.140;8.486;2023-02-10T09:26:05;101769.10;;;4.41;61.67
62248;BME280;48237;50.140;8.486;2023-02-10T09:28:32;101774.68;;;2.53;67.14
62248;BME280;48237;50.140;8.486;2023-02-10T09:30:59;101776.94;;;2.32;68.38
62248;BME280;48237;50.140;8.486;2023-02-10T09:33:27;101775.94;;;3.55;66.34
62248;BME280;48237;50.140;8.486;2023-02-10T09:35:55;101778.42;;;3.78;63.73
62248;BME280;48237;50.140;8.486;2023-02-10T09:38:22;101785.24;;;3.48;64.95
62248;BME280;48237;50.140;8.486;2023-02-10T09:40:58;101789.23;;;2.81;66.95
62248;BME280;48237;50.140;8.486;2023-02-10T09:43:45;101795.86;;;2.73;65.49
62248;BME280;48237;50.140;8.486;2023-02-10T09:46:25;101793.57;;;3.84;64.56
62248;BME280;48237;50.140;8.486;2023-02-10T09:49:04;101790.35;;;4.05;64.86
62248;BME280;48237;50.140;8.486;2023-02-10T09:51:45;101788.47;;;4.49;63.29
62248;BME280;48237;50.140;8.486;2023-02-10T09:54:15;101797.02;;;3.14;63.13
62248;BME280;48237;50.140;8.486;2023-02-10T09:56:44;101799.39;;;3.09;65.63
62248;BME280;48237;50.140;8.486;2023-02-10T09:59:16;101792.62;;;4.53;61.56
62248;BME280;48237;50.140;8.486;2023-02-10T10:01:50;101793.07;;;5.06;59.89
62248;BME280;48237;50.140;8.486;2023-02-10T10:04:22;101793.75;;;5.35;60.01
62248;BME280;48237;50.140;8.486;2023-02-10T10:06:51;101796.46;;;5.23;58.93
62248;BME280;48237;50.140;8.486;2023-02-10T10:09:29;101793.44;;;4.45;61.81
62248;BME280;48237;50.140;8.486;2023-02-10T10:11:59;101796.85;;;3.31;63.44
62248;BME280;48237;50.140;8.486;2023-02-10T10:14:29;101797.01;;;3.20;65.82
62248;BME280;48237;50.140;8.486;2023-02-10T10:17:10;101796.77;;;3.63;66.23
62248;BME280;48237;50.140;8.486;2023-02-10T10:19:54;101789.85;;;4.29;63.57
62248;BME280;48237;50.140;8.486;2023-02-10T10:22:36;101800.11;;;5.25;59.88
62248;BME280;48237;50.140;8.486;2023-02-10T10:26:30;101800.82;;;4.67;60.75
62248;BME280;48237;50.140;8.486;2023-02-10T10:29:19;101800.55;;;4.77;60.61
62248;BME280;48237;50.140;8.486;2023-02-10T10:31:50;101800.64;;;5.04;59.64
62248;BME280;48237;50.140;8.486;2023-02-10T10:34:24;101803.46;;;5.07;59.02
62248;BME280;48237;50.140;8.486;2023-02-10T10:36:56;101804.14;;;2.44;67.80
62248;BME280;48237;50.140;8.486;2023-02-10T10:39:30;101803.22;;;3.64;64.39
62248;BME280;48237;50.140;8.486;2023-02-10T10:42:01;101799.90;;;4.24;62.78
62248;BME280;48237;50.140;8.486;2023-02-10T10:44:30;101800.26;;;4.90;61.21
62248;BME280;48237;50.140;8.486;2023-02-10T10:47:04;101798.26;;;4.40;63.00
62248;BME280;48237;50.140;8.486;2023-02-10T10:49:32;101803.67;;;4.61;61.40
62248;BME280;48237;50.140;8.486;2023-02-10T10:51:59;101804.98;;;4.02;62.61
62248;BME280;48237;50.140;8.486;2023-02-10T10:54:35;101806.96;;;5.26;58.20
62248;BME280;48237;50.140;8.486;2023-02-10T10:57:04;101806.67;;;4.97;59.55
62248;BME280;48237;50.140;8.486;2023-02-10T10:59:37;101799.55;;;5.52;59.09
62248;BME280;48237;50.140;8.486;2023-02-10T11:02:11;101793.82;;;5.22;58.59
62248;BME280;48237;50.140;8.486;2023-02-10T11:04:39;101791.27;;;5.46;58.10
62248;BME280;48237;50.140;8.486;2023-02-10T11:07:09;101788.39;;;5.11;58.85
62248;BME280;48237;50.140;8.486;2023-02-10T11:09:40;101783.49;;;5.91;56.66
62248;BME280;48237;50.140;8.486;2023-02-10T11:12:16;101779.25;;;5.57;57.33
62248;BME280;48237;50.140;8.486;2023-02-10T11:14:49;101776.92;;;5.23;58.10
62248;BME280;48237;50.140;8.486;2023-02-10T11:17:22;101777.70;;;5.11;59.09
62248;BME280;48237;50.140;8.486;2023-02-10T11:19:57;101780.02;;;5.00;57.05
62248;BME280;48237;50.140;8.486;2023-02-10T11:22:25;101776.38;;;5.71;56.60
62248;BME280;48237;50.140;8.486;2023-02-10T11:24:54;101774.31;;;5.14;58.26
62248;BME280;48237;50.140;8.486;2023-02-10T11:27:22;101773.01;;;4.90;59.42
62248;BME280;48237;50.140;8.486;2023-02-10T11:29:51;101771.77;;;3.15;60.60
62248;BME280;48237;50.140;8.486;2023-02-10T11:32:21;101765.18;;;5.36;58.13
62248;BME280;48237;50.140;8.486;2023-02-10T11:34:52;101761.07;;;5.88;56.88
62248;BME280;48237;50.140;8.486;2023-02-10T11:37:25;101759.92;;;5.79;56.42
62248;BME280;48237;50.140;8.486;2023-02-10T11:39:54;101752.90;;;5.85;56.08
62248;BME280;48237;50.140;8.486;2023-02-10T11:42:25;101758.78;;;5.41;58.07
62248;BME280;48237;50.140;8.486;2023-02-10T11:44:56;101756.66;;;5.46;58.34
62248;BME280;48237;50.140;8.486;2023-02-10T11:47:26;101757.56;;;4.73;60.34
62248;BME280;48237;50.140;8.486;2023-02-10T11:49:54;101748.48;;;5.70;58.54
62248;BME280;48237;50.140;8.486;2023-02-10T11:52:22;101745.90;;;6.21;57.15
62248;BME280;48237;50.140;8.486;2023-02-10T11:54:51;101741.39;;;5.72;56.26
62248;BME280;48237;50.140;8.486;2023-02-10T11:57:26;101738.21;;;6.05;57.77
62248;BME280;48237;50.140;8.486;2023-02-10T12:00:06;101741.82;;;5.62;57.63
62248;BME280;48237;50.140;8.486;2023-02-10T12:02:49;101743.91;;;4.70;58.56
62248;BME280;48237;50.140;8.486;2023-02-10T12:05:27;101752.04;;;4.74;57.84
62248;BME280;48237;50.140;8.486;2023-02-10T12:08:06;101747.93;;;5.87;57.40
62248;BME280;48237;50.140;8.486;2023-02-10T12:10:43;101748.19;;;5.13;58.89
62248;BME280;48237;50.140;8.486;2023-02-10T12:13:19;101746.40;;;3.26;64.50
62248;BME280;48237;50.140;8.486;2023-02-10T12:16:00;101737.41;;;5.80;58.40
62248;BME280;48237;50.140;8.486;2023-02-10T12:18:43;101743.00;;;3.09;65.59
62248;BME280;48237;50.140;8.486;2023-02-10T12:21:25;101740.01;;;3.46;65.34
62248;BME280;48237;50.140;8.486;2023-02-10T12:24:07;101735.82;;;4.37;62.32
62248;BME280;48237;50.140;8.486;2023-02-10T12:26:44;101735.49;;;2.84;67.58
62248;BME280;48237;50.140;8.486;2023-02-10T12:29:27;101733.78;;;3.52;65.97
62248;BME280;48237;50.140;8.486;2023-02-10T12:32:02;101733.23;;;4.37;62.31
62248;BME280;48237;50.140;8.486;2023-02-10T12:34:44;101733.21;;;2.59;68.29
62248;BME280;48237;50.140;8.486;2023-02-10T12:37:24;101724.55;;;3.38;66.14
62248;BME280;48237;50.140;8.486;2023-02-10T12:40:18;101721.52;;;4.12;63.63
62248;BME280;48237;50.140;8.486;2023-02-10T12:42:56;101712.88;;;5.77;59.86
62248;BME280;48237;50.140;8.486;2023-02-10T12:45:32;101712.37;;;5.03;60.21
62248;BME280;48237;50.140;8.486;2023-02-10T12:48:16;101719.41;;;5.19;63.87
62248;BME280;48237;50.140;8.486;2023-02-10T12:50:58;101718.71;;;3.71;67.50
62248;BME280;48237;50.140;8.486;2023-02-10T12:53:34;101717.92;;;2.97;68.26
62248;BME280;48237;50.140;8.486;2023-02-10T12:56:07;101710.06;;;4.10;67.04
62248;BME280;48237;50.140;8.486;2023-02-10T12:58:38;101704.16;;;4.72;64.30
62248;BME280;48237;50.140;8.486;2023-02-10T13:01:11;101697.52;;;3.93;66.13
62248;BME280;48237;50.140;8.486;2023-02-10T13:03:44;101689.24;;;4.47;65.70
62248;BME280;48237;50.140;8.486;2023-02-10T13:06:23;101686.02;;;3.96;65.80
62248;BME280;48237;50.140;8.486;2023-02-10T13:08:55;101682.57;;;5.29;62.98
62248;BME280;48237;50.140;8.486;2023-02-10T13:11:34;101682.14;;;5.47;62.63
62248;BME280;48237;50.140;8.486;2023-02-10T13:14:08;101685.64;;;4.62;64.65
62248;BME280;48237;50.140;8.486;2023-02-10T13:16:38;101680.78;;;5.46;61.93